Time;durP1;ratioP1;P1;durP2;ratioP2;P2;SDS_P1;SDS_P2;PMS_P1;PMS_P2;Temp;Humidity;BMP_temperature;BMP_pressure;BME280_temperature;BME280_humidity;BME280_pressure;Samples;Min_cycle;Max_cycle;Signal;HPM_P1;HPM_P2
2021/03/22 00:00:15;;;;;;;;;;;7.00;99.90;;;6.56;100.00;101196.88;5075500;28;20333;-63
2021/03/22 00:02:43;;;;;;;;;;;6.90;99.90;;;6.49;100.00;101191.72;5075410;28;20397;-62
2021/03/22 00:05:12;;;;;;;;;;;6.90;99.90;;;6.45;100.00;101189.78;5074258;28;19928;-63
2021/03/22 00:07:39;;;;;;;;;;;6.80;99.90;;;6.48;100.00;101184.72;5074162;28;19929;-63
2021/03/22 00:10:08;;;;;;;;;;;6.80;99.90;;;6.40;100.00;101182.50;5074811;28;19932;-63
2021/03/22 00:12:35;;;;;;;;;;;6.80;99.90;;;6.36;100.00;101178.69;5075401;28;19931;-63
2021/03/22 00:15:04;;;;;;;;;;;6.80;99.90;;;6.37;100.00;101176.81;5074236;28;19924;-63
2021/03/22 00:17:31;;;;;;;;;;;6.80;99.90;;;6.32;100.00;101166.81;5074085;28;19982;-63
2021/03/22 00:19:58;;;;;;;;;;;6.70;99.90;;;6.31;100.00;101167.88;5075129;28;19928;-63
2021/03/22 00:22:27;;;;;;;;;;;6.70;99.90;;;6.41;100.00;101172.56;5074511;28;19931;-63
2021/03/22 00:24:55;;;;;;;;;;;6.80;99.90;;;6.59;100.00;101166.81;5073599;28;20325;-62
2021/03/22 00:27:22;;;;;;;;;;;7.00;99.90;;;6.55;100.00;101169.22;5073927;28;20325;-62
2021/03/22 00:29:50;;;;;;;;;;;7.00;99.90;;;6.42;100.00;101168.78;5074340;28;19977;-62
2021/03/22 00:32:17;;;;;;;;;;;7.00;99.90;;;6.38;100.00;101173.06;5073894;28;19932;-63
2021/03/22 00:34:44;;;;;;;;;;;6.90;99.90;;;6.39;100.00;101164.75;5073655;28;19978;-62
2021/03/22 00:37:12;;;;;;;;;;;6.90;99.90;;;6.30;100.00;101163.56;5073299;28;19924;-62
2021/03/22 00:39:42;;;;;;;;;;;6.90;99.90;;;6.35;100.00;101169.00;5074444;28;19936;-63
2021/03/22 00:42:10;;;;;;;;;;;6.90;99.90;;;6.27;100.00;101164.09;5073800;28;20267;-63
2021/03/22 00:44:37;;;;;;;;;;;6.80;99.90;;;6.23;100.00;101164.84;5073029;28;19924;-63
2021/03/22 00:47:05;;;;;;;;;;;6.80;99.90;;;6.28;100.00;101156.84;5072993;28;19925;-63
2021/03/22 00:49:32;;;;;;;;;;;6.80;99.90;;;6.35;100.00;101157.47;5073789;28;20371;-63
2021/03/22 00:52:00;;;;;;;;;;;6.80;99.90;;;6.42;100.00;101147.31;5073860;28;20419;-63
2021/03/22 00:54:27;;;;;;;;;;;6.90;99.90;;;6.38;100.00;101147.00;5072787;28;19947;-63
2021/03/22 00:56:56;;;;;;;;;;;6.90;99.90;;;6.41;100.00;101149.16;5072693;28;20345;-63
2021/03/22 00:59:23;;;;;;;;;;;6.90;99.90;;;6.48;100.00;101143.59;5073837;28;19929;-63
2021/03/22 01:01:50;;;;;;;;;;;7.00;99.90;;;6.65;100.00;101143.50;5074285;28;19928;-63
2021/03/22 01:04:17;;;;;;;;;;;7.10;99.90;;;6.57;100.00;101145.56;5072910;28;19982;-63
2021/03/22 01:06:45;;;;;;;;;;;7.10;99.90;;;6.45;100.00;101136.88;5072919;28;19928;-63
2021/03/22 01:09:13;;;;;;;;;;;;;;;6.29;100.00;101134.31;5073722;28;19978;-63
2021/03/22 01:11:40;;;;;;;;;;;6.80;99.90;;;6.25;100.00;101142.03;5073803;28;19924;-63
2021/03/22 01:14:08;;;;;;;;;;;6.80;99.90;;;6.35;100.00;101138.66;5072958;28;19932;-62
2021/03/22 01:16:38;;;;;;;;;;;6.90;99.90;;;6.42;100.00;101137.38;5072699;28;20379;-62
2021/03/22 01:19:09;;;;;;;;;;;6.90;99.90;;;6.44;100.00;101134.44;5073788;28;19924;-63
2021/03/22 01:21:38;;;;;;;;;;;7.00;99.90;;;6.44;100.00;101135.22;5073514;28;19978;-62
2021/03/22 01:24:07;;;;;;;;;;;7.00;99.90;;;6.45;100.00;101134.19;5072591;28;19932;-63
2021/03/22 01:26:36;;;;;;;;;;;7.00;99.90;;;6.46;100.00;101130.44;5071989;28;19925;-62
2021/03/22 01:29:06;;;;;;;;;;;7.00;99.90;;;6.51;100.00;101124.28;5072024;28;20328;-63
2021/03/22 01:31:34;;;;;;;;;;;7.00;99.90;;;6.53;100.00;101128.38;5073139;28;19924;-63
2021/03/22 01:34:02;;;;;;;;;;;7.00;99.90;;;6.50;100.00;101128.06;5072271;28;19924;-63
2021/03/22 01:36:30;;;;;;;;;;;7.00;99.90;;;6.51;100.00;101121.59;5072001;28;19932;-63
2021/03/22 01:39:00;;;;;;;;;;;7.00;99.90;;;6.51;100.00;101121.59;5072561;28;19936;-63
2021/03/22 01:41:41;;;;;;;;;;;7.00;99.90;;;6.50;100.00;101118.13;5072729;28;19929;-63
2021/03/22 01:44:16;;;;;;;;;;;7.00;99.90;;;6.48;100.00;101109.50;5072121;28;19929;-63
2021/03/22 01:46:46;;;;;;;;;;;7.00;99.90;;;6.55;100.00;101110.09;5071610;28;19931;-63
2021/03/22 01:49:14;;;;;;;;;;;7.10;99.90;;;6.70;100.00;101112.09;5072439;28;20432;-63
2021/03/22 01:51:42;;;;;;;;;;;7.20;99.90;;;6.82;100.00;101109.22;5072769;28;19953;-63
2021/03/22 01:54:11;;;;;;;;;;;7.30;99.90;;;6.88;100.00;101103.63;5071970;28;20027;-63
2021/03/22 01:56:45;;;;;;;;;;;7.40;99.90;;;6.83;100.00;101106.28;5071511;28;19924;-63
2021/03/22 01:59:15;;;;;;;;;;;7.30;99.90;;;6.91;100.00;101099.59;5072592;28;19924;-63
2021/03/22 02:01:45;;;;;;;;;;;7.40;99.90;;;6.98;100.00;101103.72;5072378;28;19925;-63
2021/03/22 02:04:13;;;;;;;;;;;7.50;99.90;;;7.06;100.00;101100.53;5072087;28;20282;-63
2021/03/22 02:06:40;;;;;;;;;;;7.50;99.90;;;7.11;100.00;101100.53;5071108;28;19928;-63
2021/03/22 02:09:07;;;;;;;;;;;7.60;99.90;;;7.14;100.00;101099.25;5072447;28;19932;-63
2021/03/22 02:11:36;;;;;;;;;;;7.60;99.90;;;7.17;100.00;101093.34;5072608;28;19924;-63
2021/03/22 02:14:06;;;;;;;;;;;7.60;99.90;;;7.22;100.00;101093.34;5071677;28;19928;-63
2021/03/22 02:16:50;;;;;;;;;;;7.70;99.90;;;7.22;100.00;101090.66;5071431;28;19929;-63
2021/03/22 02:19:45;;;;;;;;;;;7.70;99.90;;;7.18;100.00;101088.75;5072376;28;19924;-63
2021/03/22 02:22:37;;;;;;;;;;;7.60;99.90;;;7.12;100.00;101087.91;5071515;28;20275;-63
2021/03/22 02:25:21;;;;;;;;;;;7.60;99.90;;;6.87;100.00;101085.09;5071617;28;20023;-63
2021/03/22 02:28:22;;;;;;;;;;;7.40;99.90;;;6.73;100.00;101083.88;5071772;28;19928;-63
2021/03/22 02:31:24;;;;;;;;;;;7.20;99.90;;;6.73;100.00;101083.88;5069975;28;19924;-63
2021/03/22 02:34:17;;;;;;;;;;;7.20;99.90;;;6.68;100.00;101070.44;5072366;28;19924;-63
2021/03/22 02:36:57;;;;;;;;;;;7.20;99.90;;;6.57;100.00;101070.34;5071160;28;20370;-63
2021/03/22 02:39:26;;;;;;;;;;;7.10;99.90;;;6.52;100.00;101064.94;5072982;28;19924;-63
2021/03/22 02:41:56;;;;;;;;;;;7.00;99.90;;;6.55;100.00;101061.75;5076688;28;19931;-63
2021/03/22 02:44:27;;;;;;;;;;;7.00;99.90;;;6.53;100.00;101058.50;5076020;28;19929;-63
2021/03/22 02:46:56;;;;;;;;;;;7.00;99.90;;;6.53;100.00;101061.19;5075027;28;20374;-62
2021/03/22 02:49:25;;;;;;;;;;;7.00;99.90;;;6.50;100.00;101058.22;5075773;28;19981;-63
2021/03/22 02:52:17;;;;;;;;;;;7.00;99.90;;;6.45;100.00;101055.47;5075873;28;20293;-63
2021/03/22 02:54:53;;;;;;;;;;;6.90;99.90;;;6.41;100.00;101059.75;5074978;28;20294;-63
2021/03/22 02:57:25;;;;;;;;;;;6.90;99.90;;;6.48;100.00;101055.75;5074763;28;19929;-63
2021/03/22 02:59:55;;;;;;;;;;;6.90;99.90;;;6.62;100.00;101055.34;5075570;28;20385;-63
2021/03/22 03:02:23;;;;;;;;;;;7.10;99.90;;;6.69;100.00;101050.56;5075663;28;19993;-63
2021/03/22 03:04:51;;;;;;;;;;;7.10;99.90;;;6.77;100.00;101050.88;5074808;28;19986;-63
2021/03/22 03:07:20;;;;;;;;;;;7.10;99.90;;;6.89;100.00;101042.63;5074524;28;19990;-62
2021/03/22 03:09:48;;;;;;;;;;;7.30;99.90;;;7.03;100.00;101046.44;5075630;28;19928;-63
2021/03/22 03:12:17;;;;;;;;;;;7.40;99.90;;;7.03;99.38;101043.75;5077024;28;19939;-63
2021/03/22 03:14:48;;;;;;;;;;;7.40;99.90;;;7.06;98.31;101043.25;5074531;28;19925;-63
2021/03/22 03:17:15;;;;;;;;;;;7.40;99.90;;;7.09;97.59;101046.22;5074161;28;19935;-63
2021/03/22 03:19:42;;;;;;;;;;;7.50;99.90;;;7.10;96.71;101047.03;5075169;28;19925;-63
2021/03/22 03:22:11;;;;;;;;;;;7.50;99.90;;;7.06;95.94;101038.69;5075642;28;19931;-63
2021/03/22 03:24:39;;;;;;;;;;;7.40;99.90;;;6.94;94.81;101032.69;5074725;28;19924;-63
2021/03/22 03:27:07;;;;;;;;;;;7.30;99.90;;;6.88;95.38;101030.22;5073836;28;20396;-63
2021/03/22 03:29:35;;;;;;;;;;;7.20;99.90;;;6.73;94.73;101030.13;5075033;28;19939;-62
2021/03/22 03:32:02;;;;;;;;;;;7.10;99.90;;;6.60;95.96;101028.72;5076177;28;19924;-63
2021/03/22 03:34:29;;;;;;;;;;;7.00;99.90;;;6.46;96.61;101031.03;5074877;28;19935;-63
2021/03/22 03:36:56;;;;;;;;;;;6.90;99.90;;;6.51;98.29;101032.94;5073809;28;20274;-63
2021/03/22 03:39:25;;;;;;;;;;;6.90;99.90;;;6.49;98.60;101030.53;5074852;28;20339;-63
2021/03/22 03:41:52;;;;;;;;;;;6.90;99.90;;;6.57;98.97;101030.03;5074951;28;19932;-63
2021/03/22 03:44:19;;;;;;;;;;;6.90;99.90;;;6.66;98.90;101024.19;5074568;28;19951;-63
2021/03/22 03:46:46;;;;;;;;;;;7.00;99.90;;;6.67;98.02;101025.81;5073832;28;20002;-63
2021/03/22 03:49:14;;;;;;;;;;;7.00;99.90;;;6.67;96.83;101025.81;5074796;28;19928;-63
2021/03/22 03:51:41;;;;;;;;;;;7.10;99.90;;;6.62;96.92;101023.09;5074206;28;19925;-63
2021/03/22 03:54:10;;;;;;;;;;;7.00;99.90;;;6.64;96.35;101023.63;5074104;28;19925;-63
2021/03/22 03:56:38;;;;;;;;;;;7.00;99.90;;;6.75;98.55;101022.66;5073689;28;19924;-63
2021/03/22 03:59:07;;;;;;;;;;;7.10;99.90;;;6.85;98.09;101017.31;5074477;28;20403;-63
2021/03/22 04:01:35;;;;;;;;;;;7.30;99.90;;;6.94;97.09;101016.56;5074677;28;19924;-63
2021/03/22 04:04:03;;;;;;;;;;;7.30;99.90;;;6.98;95.78;101017.69;5074149;28;19924;-63
2021/03/22 04:06:32;;;;;;;;;;;7.30;99.90;;;7.01;96.08;101021.72;5073614;28;19931;-63
2021/03/22 04:09:02;;;;;;;;;;;7.40;99.90;;;7.08;96.70;101016.91;5074179;28;19932;-63
2021/03/22 04:11:32;;;;;;;;;;;7.50;99.90;;;7.21;96.29;101011.03;5074671;28;19959;-63
2021/03/22 04:14:01;;;;;;;;;;;7.60;99.90;;;7.26;95.69;101013.78;5074039;28;19933;-64
2021/03/22 04:16:30;;;;;;;;;;;7.70;99.90;;;7.40;95.49;101006.81;5073756;28;19929;-63
2021/03/22 04:18:57;;;;;;;;;;;7.80;99.90;;;7.45;95.88;101008.72;5074150;28;20393;-64
2021/03/22 04:21:26;;;;;;;;;;;7.80;99.90;;;7.56;96.45;101007.69;5074403;28;19947;-63
2021/03/22 04:23:55;;;;;;;;;;;8.00;99.90;;;7.64;95.76;101007.16;5073890;28;20413;-63
2021/03/22 04:26:22;;;;;;;;;;;8.10;99.90;;;7.86;94.94;101004.25;5073546;28;20374;-63
2021/03/22 04:28:50;;;;;;;;;;;8.20;99.90;;;8.01;93.88;100998.88;5073638;28;19932;-63
2021/03/22 04:31:26;;;;;;;;;;;8.40;99.90;;;8.20;93.39;101003.47;5074086;28;19994;-63
2021/03/22 04:33:54;;;;;;;;;;;8.60;99.90;;;8.33;92.35;101001.34;5073633;28;19928;-63
2021/03/22 04:36:24;;;;;;;;;;;8.70;99.90;;;8.40;91.21;100997.28;5072952;28;20377;-63
2021/03/22 04:38:52;;;;;;;;;;;8.80;99.90;;;8.37;89.74;100992.44;5073343;28;19925;-63
2021/03/22 04:41:19;;;;;;;;;;;8.80;99.90;;;8.25;88.94;100989.19;5073736;28;20308;-63
2021/03/22 04:43:46;;;;;;;;;;;8.70;99.90;;;8.12;89.29;100990.53;5073089;28;19929;-63
2021/03/22 04:46:13;;;;;;;;;;;8.60;99.90;;;8.01;90.22;100983.53;5072500;28;19920;-63
2021/03/22 04:48:42;;;;;;;;;;;8.50;99.90;;;7.94;92.27;100982.16;5073002;28;20433;-63
2021/03/22 04:51:09;;;;;;;;;;;8.40;99.90;;;7.86;92.42;100982.72;5073432;28;19924;-63
2021/03/22 04:53:36;;;;;;;;;;;8.30;99.90;;;7.81;92.15;100978.13;5073282;28;19932;-63
2021/03/22 04:56:07;;;;;;;;;;;8.30;99.90;;;7.78;91.95;100975.97;5072328;28;20432;-63
2021/03/22 04:58:36;;;;;;;;;;;8.20;99.90;;;7.77;91.92;100970.84;5072844;28;20465;-63
2021/03/22 05:01:04;;;;;;;;;;;8.20;99.90;;;7.77;91.97;100973.53;5073262;28;19925;-63
2021/03/22 05:03:31;;;;;;;;;;;8.20;99.90;;;7.78;91.79;100977.84;5072287;28;19934;-63
2021/03/22 05:05:59;;;;;;;;;;;8.20;99.90;;;7.76;92.02;100970.03;5072418;28;20001;-63
2021/03/22 05:08:27;;;;;;;;;;;8.20;99.90;;;7.79;91.62;100977.56;5072888;28;19932;-63
2021/03/22 05:10:57;;;;;;;;;;;8.20;99.90;;;7.82;91.22;100968.97;5073666;28;19946;-63
2021/03/22 05:13:24;;;;;;;;;;;8.30;99.90;;;7.86;90.93;100977.31;5072928;28;19951;-63
2021/03/22 05:15:52;;;;;;;;;;;8.30;99.90;;;7.84;91.05;100974.09;5072154;28;19928;-63
2021/03/22 05:18:20;;;;;;;;;;;8.30;99.90;;;7.81;91.47;100966.56;5072798;28;20386;-63
2021/03/22 05:20:49;;;;;;;;;;;8.30;99.90;;;7.81;90.63;100967.38;5073380;28;19978;-63
2021/03/22 05:23:19;;;;;;;;;;;8.30;99.90;;;7.78;90.85;100967.09;5072916;28;19924;-63
2021/03/22 05:25:47;;;;;;;;;;;8.20;99.90;;;7.81;90.36;100971.94;5072974;28;19982;-63
2021/03/22 05:28:14;;;;;;;;;;;8.30;99.90;;;7.83;90.14;100972.47;5072479;28;20352;-62
2021/03/22 05:30:42;;;;;;;;;;;8.30;99.90;;;7.80;89.41;100975.69;5072881;28;19935;-63
2021/03/22 05:33:11;;;;;;;;;;;8.30;99.90;;;7.80;89.82;100973.00;5072981;28;20015;-63
2021/03/22 05:35:39;;;;;;;;;;;8.20;99.90;;;7.70;88.16;100979.19;5072414;28;20376;-63
2021/03/22 05:38:07;;;;;;;;;;;8.10;99.90;;;7.72;89.23;100970.84;5072923;28;20278;-63
2021/03/22 05:40:39;;;;;;;;;;;8.10;99.90;;;7.69;89.37;100967.59;5073387;28;19982;-63
2021/03/22 05:43:16;;;;;;;;;;;8.10;99.90;;;7.67;88.91;100972.44;5072833;28;19924;-63
2021/03/22 05:45:57;;;;;;;;;;;8.10;99.90;;;7.68;88.81;100966.00;5072127;28;19924;-63
2021/03/22 05:48:38;;;;;;;;;;;8.10;99.90;;;7.66;89.02;100967.31;5072598;28;20393;-63
2021/03/22 05:51:33;;;;;;;;;;;8.10;99.90;;;7.63;89.07;100965.97;5072972;28;19928;-63
2021/03/22 05:54:06;;;;;;;;;;;8.10;99.90;;;7.63;89.49;100970.53;5072278;28;20019;-63
2021/03/22 05:56:40;;;;;;;;;;;8.10;99.90;;;7.62;89.72;100977.03;5071835;28;20382;-63
2021/03/22 05:59:24;;;;;;;;;;;8.10;99.90;;;7.57;91.17;100975.13;5072516;28;19928;-63
2021/03/22 06:01:53;;;;;;;;;;;8.00;99.90;;;7.59;90.79;100975.69;5072724;28;19925;-62
2021/03/22 06:04:25;;;;;;;;;;;8.00;99.90;;;7.60;90.89;100981.84;5072126;28;19925;-63
2021/03/22 06:06:52;;;;;;;;;;;8.00;99.90;;;7.58;91.39;100976.75;5071444;28;20389;-62
2021/03/22 06:09:28;;;;;;;;;;;8.00;99.90;;;7.58;91.83;100976.75;5072232;28;19932;-63
2021/03/22 06:12:00;;;;;;;;;;;8.10;99.90;;;7.57;91.76;100980.50;5072700;28;19932;-62
2021/03/22 06:14:37;;;;;;;;;;;8.00;99.90;;;7.56;91.49;100976.22;5073416;28;19931;-63
2021/03/22 06:17:09;;;;;;;;;;;8.00;99.90;;;7.57;90.97;100983.19;5078180;28;20380;-63
2021/03/22 06:19:38;;;;;;;;;;;8.00;99.90;;;7.56;91.33;100983.47;5079067;28;19928;-63
2021/03/22 06:22:06;;;;;;;;;;;8.00;99.90;;;7.56;91.09;100983.47;5079199;28;19924;-63
2021/03/22 06:24:33;;;;;;;;;;;8.00;99.90;;;7.59;91.28;100983.75;5078471;28;19978;-63
2021/03/22 06:27:02;;;;;;;;;;;8.00;99.90;;;7.65;90.21;100988.06;5078160;28;19928;-63
2021/03/22 06:29:31;;;;;;;;;;;8.10;99.90;;;7.63;90.46;100987.50;5078828;28;19939;-62
2021/03/22 06:32:02;;;;;;;;;;;8.10;99.90;;;7.62;90.66;100993.16;5079168;28;19931;-63
2021/03/22 06:34:38;;;;;;;;;;;8.10;99.90;;;7.65;91.02;101001.53;5078426;28;20031;-62
2021/03/22 06:37:07;;;;;;;;;;;8.10;99.90;;;7.74;90.46;101001.00;5078373;28;19929;-63
2021/03/22 06:39:35;;;;;;;;;;;8.20;99.90;;;7.82;89.56;101003.97;5078736;28;19928;-63
2021/03/22 06:42:17;;;;;;;;;;;8.20;99.90;;;7.80;89.13;101011.50;5078858;28;19924;-63
2021/03/22 06:44:44;;;;;;;;;;;8.20;99.90;;;7.80;89.77;101006.13;5078074;28;19932;-63
2021/03/22 06:47:22;;;;;;;;;;;8.30;99.90;;;7.87;88.58;101009.38;5078015;28;20443;-63
2021/03/22 06:49:50;;;;;;;;;;;8.30;99.90;;;7.92;88.00;101011.25;5079004;28;19924;-63
2021/03/22 06:52:20;;;;;;;;;;;8.40;99.90;;;8.11;87.39;101006.97;5079067;28;19928;-63
2021/03/22 06:54:49;;;;;;;;;;;8.40;99.90;;;8.71;84.63;101008.84;5077960;28;19928;-63
2021/03/22 06:57:19;;;;;;;;;;;8.70;99.90;;;9.27;81.65;101012.19;5077900;28;19924;-63
2021/03/22 07:00:05;;;;;;;;;;;9.00;99.90;;;9.62;78.38;101006.63;5078509;28;20069;-63
2021/03/22 07:02:40;;;;;;;;;;;9.20;99.90;;;9.85;77.51;101002.41;5078286;28;19931;-63
2021/03/22 07:05:28;;;;;;;;;;;9.30;99.90;;;10.23;75.57;101003.53;5078494;28;19928;-63
2021/03/22 07:07:56;;;;;;;;;;;;;;;11.09;72.90;101006.19;5078241;28;19932;-63
2021/03/22 07:10:24;;;;;;;;;;;10.60;99.90;;;12.70;nan;100996.78;5078668;28;19924;-63
2021/03/22 07:13:09;;;;;;;;;;;11.70;99.90;;;14.19;60.72;100991.13;5078631;28;19924;-62
2021/03/22 07:15:39;;;;;;;;;;;13.20;99.90;;;15.41;57.03;100994.09;5078241;28;20338;-65
2021/03/22 07:18:12;;;;;;;;;;;14.00;99.90;;;16.34;53.40;100978.91;5078211;28;19968;-62
2021/03/22 07:20:40;;;;;;;;;;;14.80;99.90;;;17.46;49.92;100990.19;5078644;28;19936;-65
2021/03/22 07:23:39;;;;;;;;;;;15.30;99.90;;;18.37;46.66;100988.50;5078573;28;19925;-65
2021/03/22 07:26:10;;;;;;;;;;;16.40;99.90;;;19.29;44.30;100978.72;5076003;28;20423;-63
2021/03/22 07:28:46;;;;;;;;;;;17.30;99.90;;;19.80;42.36;100977.16;5075141;28;20270;-63
2021/03/22 07:31:22;;;;;;;;;;;18.00;99.90;;;20.28;40.92;100976.19;5075029;28;19924;-64
2021/03/22 07:33:59;;;;;;;;;;;18.10;99.90;;;20.41;40.67;100974.97;5074549;28;20340;-63
2021/03/22 07:36:42;;;;;;;;;;;18.60;99.90;;;19.88;42.48;100984.44;5075152;28;20444;-63
2021/03/22 07:39:18;;;;;;;;;;;19.00;99.90;;;18.18;44.57;100989.00;5074863;28;19924;-63
2021/03/22 07:42:11;;;;;;;;;;;18.90;99.90;;;16.13;49.62;101001.72;5075290;28;19978;-63
2021/03/22 07:44:51;;;;;;;;;;;18.20;99.90;;;14.65;55.53;101006.34;5056840;28;19925;-63
2021/03/22 07:47:42;;;;;;;;;;;16.70;99.90;;;14.12;58.56;101004.34;5074509;28;19948;-63
2021/03/22 07:50:21;;;;;;;;;;;15.60;99.90;;;13.84;59.42;101005.56;5075286;28;20362;-65
2021/03/22 07:52:54;;;;;;;;;;;14.80;99.90;;;13.74;60.46;101010.44;5075170;28;20340;-63
2021/03/22 07:55:46;;;;;;;;;;;14.40;99.90;;;13.75;59.83;101014.75;5074812;28;19936;-63
2021/03/22 07:58:25;;;;;;;;;;;14.30;99.90;;;13.55;60.39;101013.28;5074637;28;19925;-63
2021/03/22 08:01:01;;;;;;;;;;;14.20;99.90;;;13.47;61.27;101014.00;5075148;28;19967;-63
2021/03/22 08:03:32;;;;;;;;;;;14.10;99.90;;;13.55;61.56;101011.38;5074447;28;19924;-63
2021/03/22 08:06:24;;;;;;;;;;;14.20;99.90;;;13.54;61.32;101017.09;5074499;28;19933;-63
2021/03/22 08:09:16;;;;;;;;;;;14.20;99.90;;;13.71;60.59;101019.19;5074444;28;19929;-63
2021/03/22 08:11:46;;;;;;;;;;;14.30;99.90;;;13.77;60.80;101010.59;5074819;28;20447;-63
2021/03/22 08:14:18;;;;;;;;;;;14.40;99.90;;;13.88;61.41;101012.00;5074217;28;19925;-62
2021/03/22 08:17:18;;;;;;;;;;;14.50;99.90;;;14.13;59.59;101005.94;5074019;28;19932;-63
2021/03/22 08:19:48;;;;;;;;;;;14.60;99.90;;;14.07;61.52;101015.34;5067503;28;20324;-63
2021/03/22 08:22:21;;;;;;;;;;;14.60;99.90;;;14.22;60.32;101015.00;5074318;28;20408;-63
2021/03/22 08:25:11;;;;;;;;;;;14.70;99.90;;;14.26;59.58;101017.09;5073992;28;19954;-63
2021/03/22 08:27:42;;;;;;;;;;;14.80;99.90;;;14.45;60.66;101021.25;5072296;28;19924;-63
2021/03/22 08:30:25;;;;;;;;;;;14.90;99.90;;;14.93;58.24;101017.81;5074304;28;19928;-63
2021/03/22 08:32:57;;;;;;;;;;;15.20;99.90;;;15.18;58.94;101023.38;5073852;28;20286;-65
2021/03/22 08:35:32;;;;;;;;;;;15.50;99.90;;;15.50;55.55;101015.97;5073524;28;20389;-63
2021/03/22 08:38:00;;;;;;;;;;;15.70;99.90;;;15.39;55.35;101025.50;5073649;28;19948;-63
2021/03/22 08:40:41;;;;;;;;;;;15.90;99.90;;;15.16;52.76;101014.72;5073869;28;19925;-63
2021/03/22 08:43:14;;;;;;;;;;;15.70;99.90;;;15.22;53.68;101020.84;5073500;28;20308;-63
2021/03/22 08:45:47;;;;;;;;;;;15.80;99.90;;;15.54;55.59;101027.81;5073389;28;20369;-64
2021/03/22 08:48:18;;;;;;;;;;;15.90;99.90;;;15.94;52.97;101023.06;5073230;28;19925;-63
2021/03/22 08:50:46;;;;;;;;;;;16.20;99.90;;;15.62;50.92;101027.06;5073816;28;20019;-63
2021/03/22 08:53:15;;;;;;;;;;;16.20;99.90;;;15.48;52.63;101035.34;5073238;28;20001;-63
2021/03/22 08:55:49;;;;;;;;;;;16.00;99.90;;;15.80;53.36;101036.88;5073082;28;19977;-63
2021/03/22 08:58:25;;;;;;;;;;;16.10;99.90;;;16.19;52.10;101028.53;5073424;28;20348;-63
2021/03/22 09:00:55;;;;;;;;;;;16.30;99.90;;;16.25;50.16;101032.72;5073662;28;20301;-65
2021/03/22 09:03:31;;;;;;;;;;;16.40;99.90;;;16.29;50.52;101027.41;5073309;28;20435;-63
2021/03/22 09:06:14;;;;;;;;;;;16.50;99.90;;;16.35;51.09;101031.56;5073370;28;19933;-62
2021/03/22 09:09:01;;;;;;;;;;;16.50;99.90;;;16.54;50.80;101036.66;5073108;28;19925;-62
2021/03/22 09:11:31;;;;;;;;;;;16.70;99.90;;;16.74;50.42;101033.28;5073239;28;19929;-62
2021/03/22 09:14:00;;;;;;;;;;;;;;;16.90;50.83;101037.88;5072695;28;19934;-63
2021/03/22 09:16:41;;;;;;;;;;;16.90;99.90;;;17.04;50.30;101036.88;5073194;28;19931;-65
2021/03/22 09:19:41;;;;;;;;;;;17.10;99.90;;;16.90;48.41;101039.84;5073496;28;19925;-63
2021/03/22 09:22:41;;;;;;;;;;;17.10;99.90;;;17.08;49.66;101043.31;5072992;28;19978;-63
2021/03/22 09:25:11;;;;;;;;;;;17.20;99.90;;;17.14;47.61;101051.00;5073123;28;19925;-65
2021/03/22 09:27:39;;;;;;;;;;;17.30;99.90;;;17.27;47.81;101054.63;5072888;28;19978;-63
2021/03/22 09:30:26;;;;;;;;;;;17.40;99.90;;;17.34;50.35;101049.44;5073712;28;20023;-65
2021/03/22 09:32:53;;;;;;;;;;;17.40;99.90;;;17.38;49.82;101055.88;5073444;28;19977;-65
2021/03/22 09:36:06;;;;;;;;;;;17.50;99.90;;;17.15;47.71;101060.78;5072900;28;19932;-64
2021/03/22 09:38:45;;;;;;;;;;;17.50;99.90;;;17.26;49.72;101055.75;5070488;28;19929;-62
2021/03/22 09:41:13;;;;;;;;;;;17.50;99.90;;;17.39;48.62;101063.72;5073289;28;19924;-63
2021/03/22 09:44:02;;;;;;;;;;;17.60;99.90;;;17.33;46.71;101062.31;5072923;28;19977;-63
2021/03/22 09:46:35;;;;;;;;;;;17.60;99.90;;;17.39;49.12;101065.66;5072811;28;19928;-63
2021/03/22 09:49:21;;;;;;;;;;;17.70;99.90;;;17.61;48.62;101059.13;5072686;28;20366;-63
2021/03/22 09:51:52;;;;;;;;;;;17.80;99.90;;;17.71;48.66;101061.50;5073343;28;19947;-65
2021/03/22 09:54:32;;;;;;;;;;;17.90;99.90;;;17.76;47.20;101066.75;5072026;28;19982;-63
2021/03/22 09:57:12;;;;;;;;;;;17.90;99.90;;;17.78;46.89;101072.72;5072407;28;19947;-65
2021/03/22 10:00:02;;;;;;;;;;;17.90;99.90;;;17.57;46.05;101071.88;5073042;28;19928;-63
2021/03/22 10:02:42;;;;;;;;;;;17.80;99.90;;;17.60;48.91;101073.97;5072821;28;19933;-63
2021/03/22 10:05:16;;;;;;;;;;;17.70;99.90;;;17.60;48.17;101071.22;5072294;28;19932;-63
2021/03/22 10:07:52;;;;;;;;;;;17.90;99.90;;;17.61;48.87;101072.81;5072505;28;19924;-63
2021/03/22 10:10:31;;;;;;;;;;;17.90;99.90;;;17.67;46.03;101076.94;5073145;28;19928;-63
2021/03/22 10:13:01;;;;;;;;;;;17.90;99.90;;;17.75;46.01;101067.91;5073142;28;19928;-63
2021/03/22 10:15:31;;;;;;;;;;;18.00;99.90;;;17.92;46.68;101076.00;5072495;28;19924;-63
2021/03/22 10:18:04;;;;;;;;;;;18.10;99.90;;;17.85;48.09;101075.72;5072678;28;19928;-63
2021/03/22 10:20:37;;;;;;;;;;;18.20;99.90;;;17.89;49.34;101080.19;5073220;28;19932;-63
2021/03/22 10:23:12;;;;;;;;;;;18.20;99.90;;;17.88;49.06;101080.53;5072587;28;19928;-63
2021/03/22 10:25:41;;;;;;;;;;;18.20;99.90;;;17.89;47.64;101073.94;5072690;28;20275;-63
2021/03/22 10:28:17;;;;;;;;;;;18.20;99.90;;;17.94;47.99;101073.72;5072382;28;19931;-63
2021/03/22 10:30:57;;;;;;;;;;;18.30;99.90;;;18.20;49.17;101074.34;5073436;28;19928;-63
2021/03/22 10:33:24;;;;;;;;;;;18.50;99.90;;;18.43;47.90;101064.63;5072614;28;19924;-65
2021/03/22 10:35:53;;;;;;;;;;;18.80;99.90;;;18.38;43.73;101073.06;5072503;28;20020;-65
2021/03/22 10:38:25;;;;;;;;;;;18.70;99.90;;;18.28;43.92;101057.03;5072230;28;19924;-64
2021/03/22 10:40:54;;;;;;;;;;;18.60;99.90;;;18.23;47.10;101065.47;5072743;28;19928;-63
2021/03/22 10:43:31;;;;;;;;;;;18.60;99.90;;;18.40;45.88;101062.56;5072226;28;19925;-63
2021/03/22 10:46:00;;;;;;;;;;;18.70;99.90;;;18.53;45.84;101058.78;5072410;28;19925;-63
2021/03/22 10:48:33;;;;;;;;;;;18.80;99.90;;;18.44;47.12;101058.03;5071755;28;19936;-63
2021/03/22 10:51:07;;;;;;;;;;;18.80;99.90;;;18.47;51.40;101054.63;5072684;28;19925;-63
2021/03/22 10:53:35;;;;;;;;;;;18.90;99.90;;;18.41;51.39;101055.16;5072288;28;19932;-65
2021/03/22 10:56:21;;;;;;;;;;;18.90;99.90;;;18.40;51.00;101059.00;5072436;28;20293;-63
2021/03/22 10:58:49;;;;;;;;;;;18.80;99.90;;;18.33;53.50;101053.31;5072014;28;19925;-65
2021/03/22 11:01:19;;;;;;;;;;;18.70;99.90;;;18.28;51.46;101059.78;5073107;28;20370;-65
2021/03/22 11:03:49;;;;;;;;;;;18.70;99.90;;;18.15;51.84;101060.06;5075787;28;19929;-63
2021/03/22 11:06:31;;;;;;;;;;;18.50;99.90;;;17.99;52.92;101054.38;5076268;28;20396;-63
2021/03/22 11:09:01;;;;;;;;;;;18.40;99.90;;;17.95;54.24;101054.25;5076115;28;19928;-63
2021/03/22 11:11:31;;;;;;;;;;;18.40;99.90;;;17.92;53.54;101054.91;5076403;28;19925;-65
2021/03/22 11:14:01;;;;;;;;;;;18.30;99.90;;;18.10;54.02;101055.56;5075561;28;19924;-63
2021/03/22 11:16:30;;;;;;;;;;;18.50;99.90;;;18.34;52.79;101049.41;5075482;28;19929;-63
2021/03/22 11:18:58;;;;;;;;;;;18.70;99.90;;;18.32;53.07;101051.69;5075416;28;19928;-62
2021/03/22 11:21:27;;;;;;;;;;;18.80;99.90;;;18.38;52.45;101053.09;5075738;28;19928;-63
2021/03/22 11:23:57;;;;;;;;;;;18.80;99.90;;;18.21;52.43;101051.28;5074904;28;19931;-63
2021/03/22 11:26:27;;;;;;;;;;;18.70;99.90;;;18.15;53.85;101054.59;5075150;28;19924;-63
2021/03/22 11:29:19;;;;;;;;;;;18.70;99.90;;;18.33;51.87;101054.09;5075327;28;19928;-63
2021/03/22 11:31:48;;;;;;;;;;;18.80;99.90;;;18.16;52.89;101056.16;5075254;28;20338;-63
2021/03/22 11:34:21;;;;;;;;;;;18.70;99.90;;;18.01;54.78;101050.19;5074556;28;19924;-63
2021/03/22 11:36:49;;;;;;;;;;;18.50;99.90;;;17.89;54.69;101054.78;5074315;28;19931;-63
2021/03/22 11:39:23;;;;;;;;;;;18.40;99.90;;;17.96;55.18;101055.84;5075268;28;19982;-63
2021/03/22 11:42:08;;;;;;;;;;;18.40;99.90;;;17.85;54.47;101057.38;5075158;28;19925;-62